Moon, Virginia
Current Conditions -  °F | °C
As of 9:15 AM on Thursday 23 Oct 2014 (Local Time) from KW75 Reporting Station
Overcast Overcast  
Wind Chill: 53°   Ceiling: 4300
Heat Index: 53°   Visibility: 10mi
Dew Point: 44°   Wind: 12mph
Humidity: 71%   Direction: 310°NW
Pressure: 29.89"   Gusts: 24mph
Location:  37.44°N, 76.29°W
Report Text: KW75 231315Z AUTO 31010G21KT 10SM OVC043 12/07 A2989 RMK AO1 T01180067
Loading
Personal Weather Stations






























Interactive Weather Map
Tropical Storm Tracking
New forecast layout! Learn more

10-Day Weather Forecast

Advertisements
Track Severe Weather on mobile